<?xml version="1.0" encoding="UTF-8" standalone="no" ?>
<gpx xmlns="http://www.topografix.com/GPX/1/1" xmlns:xsi="http://www.w3.org/2001/XMLSchema-instance" xsi:schemaLocation="http://www.topografix.com/GPX/1/1 http://www.topografix.com/GPX/1/1/gpx.xsd" version="1.1" creator="VisuGPX - https://www.visugpx.com">
  <metadata>
    <name>Ste Colombe de Villeneuve 10.5</name>
  </metadata>
  <trk>
    <name><![CDATA[Ste Colombe de Villeneuve 10.5_1]]></name>
    <desc><![CDATA[]]></desc>
    <trkseg>
      <trkpt lat="44.34116" lon="0.6569">
        <ele>197.8</ele>
        <time>2020-08-02T09:00:24.000Z</time>
      </trkpt>
      <trkpt lat="44.34112" lon="0.65678">
        <ele>198</ele>
        <time>2020-08-02T09:00:10.000Z</time>
      </trkpt>
      <trkpt lat="44.34097" lon="0.65675">
        <ele>198.9</ele>
        <time>2020-08-02T08:59:57.000Z</time>
      </trkpt>
      <trkpt lat="44.34081" lon="0.65676">
        <ele>199.7</ele>
        <time>2020-08-02T08:59:43.000Z</time>
      </trkpt>
      <trkpt lat="44.34066" lon="0.65676">
        <ele>199.7</ele>
        <time>2020-08-02T08:59:30.000Z</time>
      </trkpt>
      <trkpt lat="44.34051" lon="0.65671">
        <ele>199.8</ele>
        <time>2020-08-02T08:59:16.000Z</time>
      </trkpt>
      <trkpt lat="44.34036" lon="0.65665">
        <ele>200</ele>
        <time>2020-08-02T08:59:03.000Z</time>
      </trkpt>
      <trkpt lat="44.34019" lon="0.65655">
        <ele>199.5</ele>
        <time>2020-08-02T08:58:49.000Z</time>
      </trkpt>
      <trkpt lat="44.34006" lon="0.65644">
        <ele>199.1</ele>
        <time>2020-08-02T08:58:36.000Z</time>
      </trkpt>
      <trkpt lat="44.33991" lon="0.65631">
        <ele>198.4</ele>
        <time>2020-08-02T08:58:22.000Z</time>
      </trkpt>
      <trkpt lat="44.33976" lon="0.65621">
        <ele>197.8</ele>
        <time>2020-08-02T08:58:09.000Z</time>
      </trkpt>
      <trkpt lat="44.33959" lon="0.65613">
        <ele>198.4</ele>
        <time>2020-08-02T08:57:55.000Z</time>
      </trkpt>
      <trkpt lat="44.33944" lon="0.65611">
        <ele>199.1</ele>
        <time>2020-08-02T08:57:42.000Z</time>
      </trkpt>
      <trkpt lat="44.33926" lon="0.65615">
        <ele>200</ele>
        <time>2020-08-02T08:57:28.000Z</time>
      </trkpt>
      <trkpt lat="44.33911" lon="0.65624">
        <ele>200.6</ele>
        <time>2020-08-02T08:57:15.000Z</time>
      </trkpt>
      <trkpt lat="44.33898" lon="0.65638">
        <ele>201.1</ele>
        <time>2020-08-02T08:57:01.000Z</time>
      </trkpt>
      <trkpt lat="44.33885" lon="0.6565">
        <ele>201.8</ele>
        <time>2020-08-02T08:56:48.000Z</time>
      </trkpt>
      <trkpt lat="44.33872" lon="0.65665">
        <ele>202.3</ele>
        <time>2020-08-02T08:56:34.000Z</time>
      </trkpt>
      <trkpt lat="44.3386" lon="0.65679">
        <ele>203</ele>
        <time>2020-08-02T08:56:21.000Z</time>
      </trkpt>
      <trkpt lat="44.33848" lon="0.65693">
        <ele>203.5</ele>
        <time>2020-08-02T08:56:08.000Z</time>
      </trkpt>
      <trkpt lat="44.33834" lon="0.65707">
        <ele>203.5</ele>
        <time>2020-08-02T08:55:54.000Z</time>
      </trkpt>
      <trkpt lat="44.33821" lon="0.65722">
        <ele>203</ele>
        <time>2020-08-02T08:55:41.000Z</time>
      </trkpt>
      <trkpt lat="44.33807" lon="0.65738">
        <ele>202.9</ele>
        <time>2020-08-02T08:55:27.000Z</time>
      </trkpt>
      <trkpt lat="44.33794" lon="0.65752">
        <ele>202.5</ele>
        <time>2020-08-02T08:55:14.000Z</time>
      </trkpt>
      <trkpt lat="44.33779" lon="0.65768">
        <ele>202</ele>
        <time>2020-08-02T08:55:00.000Z</time>
      </trkpt>
      <trkpt lat="44.33767" lon="0.65781">
        <ele>201.9</ele>
        <time>2020-08-02T08:54:47.000Z</time>
      </trkpt>
      <trkpt lat="44.33753" lon="0.65795">
        <ele>201.9</ele>
        <time>2020-08-02T08:54:33.000Z</time>
      </trkpt>
      <trkpt lat="44.33735" lon="0.65806">
        <ele>202.5</ele>
        <time>2020-08-02T08:54:20.000Z</time>
      </trkpt>
      <trkpt lat="44.3373" lon="0.6579">
        <ele>202.7</ele>
        <time>2020-08-02T08:54:06.000Z</time>
      </trkpt>
      <trkpt lat="44.33722" lon="0.65773">
        <ele>203</ele>
        <time>2020-08-02T08:53:53.000Z</time>
      </trkpt>
      <trkpt lat="44.33713" lon="0.65755">
        <ele>203.9</ele>
        <time>2020-08-02T08:53:39.000Z</time>
      </trkpt>
      <trkpt lat="44.33704" lon="0.65738">
        <ele>205.8</ele>
        <time>2020-08-02T08:53:26.000Z</time>
      </trkpt>
      <trkpt lat="44.33695" lon="0.6572">
        <ele>208.1</ele>
        <time>2020-08-02T08:53:12.000Z</time>
      </trkpt>
      <trkpt lat="44.33686" lon="0.65705">
        <ele>210.4</ele>
        <time>2020-08-02T08:52:59.000Z</time>
      </trkpt>
      <trkpt lat="44.33673" lon="0.65695">
        <ele>211.7</ele>
        <time>2020-08-02T08:52:45.000Z</time>
      </trkpt>
      <trkpt lat="44.33655" lon="0.65692">
        <ele>211.7</ele>
        <time>2020-08-02T08:52:32.000Z</time>
      </trkpt>
      <trkpt lat="44.3364" lon="0.65689">
        <ele>211.2</ele>
        <time>2020-08-02T08:52:18.000Z</time>
      </trkpt>
      <trkpt lat="44.33628" lon="0.65683">
        <ele>210.7</ele>
        <time>2020-08-02T08:52:05.000Z</time>
      </trkpt>
      <trkpt lat="44.33618" lon="0.65679">
        <ele>210</ele>
        <time>2020-08-02T08:51:51.000Z</time>
      </trkpt>
      <trkpt lat="44.33613" lon="0.65676">
        <ele>209.5</ele>
        <time>2020-08-02T08:51:38.000Z</time>
      </trkpt>
      <trkpt lat="44.33599" lon="0.65668">
        <ele>208.1</ele>
        <time>2020-08-02T08:51:25.000Z</time>
      </trkpt>
      <trkpt lat="44.3359" lon="0.6566">
        <ele>207.3</ele>
        <time>2020-08-02T08:51:11.000Z</time>
      </trkpt>
      <trkpt lat="44.33576" lon="0.6565">
        <ele>206</ele>
        <time>2020-08-02T08:50:58.000Z</time>
      </trkpt>
      <trkpt lat="44.33562" lon="0.65638">
        <ele>205.2</ele>
        <time>2020-08-02T08:50:44.000Z</time>
      </trkpt>
      <trkpt lat="44.33541" lon="0.65568">
        <ele>204.8</ele>
        <time>2020-08-02T08:49:37.000Z</time>
      </trkpt>
      <trkpt lat="44.33543" lon="0.65499">
        <ele>206</ele>
        <time>2020-08-02T08:48:43.000Z</time>
      </trkpt>
      <trkpt lat="44.33549" lon="0.65479">
        <ele>207.2</ele>
        <time>2020-08-02T08:48:29.000Z</time>
      </trkpt>
      <trkpt lat="44.33556" lon="0.6546">
        <ele>208</ele>
        <time>2020-08-02T08:48:16.000Z</time>
      </trkpt>
      <trkpt lat="44.33565" lon="0.65441">
        <ele>208.5</ele>
        <time>2020-08-02T08:48:02.000Z</time>
      </trkpt>
      <trkpt lat="44.33573" lon="0.65423">
        <ele>208.7</ele>
        <time>2020-08-02T08:47:49.000Z</time>
      </trkpt>
      <trkpt lat="44.33582" lon="0.65405">
        <ele>209.4</ele>
        <time>2020-08-02T08:47:35.000Z</time>
      </trkpt>
      <trkpt lat="44.33591" lon="0.65389">
        <ele>209.9</ele>
        <time>2020-08-02T08:47:22.000Z</time>
      </trkpt>
      <trkpt lat="44.33601" lon="0.65371">
        <ele>210.7</ele>
        <time>2020-08-02T08:47:08.000Z</time>
      </trkpt>
      <trkpt lat="44.33609" lon="0.65353">
        <ele>211.5</ele>
        <time>2020-08-02T08:46:55.000Z</time>
      </trkpt>
      <trkpt lat="44.33617" lon="0.65337">
        <ele>211.3</ele>
        <time>2020-08-02T08:46:42.000Z</time>
      </trkpt>
      <trkpt lat="44.33622" lon="0.65322">
        <ele>210.8</ele>
        <time>2020-08-02T08:46:28.000Z</time>
      </trkpt>
      <trkpt lat="44.33627" lon="0.65311">
        <ele>210.4</ele>
        <time>2020-08-02T08:46:15.000Z</time>
      </trkpt>
      <trkpt lat="44.33628" lon="0.6531">
        <ele>210.4</ele>
        <time>2020-08-02T08:46:01.000Z</time>
      </trkpt>
      <trkpt lat="44.33628" lon="0.6531">
        <ele>210.4</ele>
        <time>2020-08-02T08:45:48.000Z</time>
      </trkpt>
      <trkpt lat="44.33628" lon="0.6531">
        <ele>210.5</ele>
        <time>2020-08-02T08:45:34.000Z</time>
      </trkpt>
      <trkpt lat="44.33628" lon="0.6531">
        <ele>210.5</ele>
        <time>2020-08-02T08:45:21.000Z</time>
      </trkpt>
      <trkpt lat="44.33629" lon="0.65311">
        <ele>210.5</ele>
        <time>2020-08-02T08:45:07.000Z</time>
      </trkpt>
      <trkpt lat="44.33629" lon="0.65311">
        <ele>210.6</ele>
        <time>2020-08-02T08:44:54.000Z</time>
      </trkpt>
      <trkpt lat="44.3363" lon="0.65311">
        <ele>210.6</ele>
        <time>2020-08-02T08:44:40.000Z</time>
      </trkpt>
      <trkpt lat="44.3363" lon="0.6531">
        <ele>210.6</ele>
        <time>2020-08-02T08:44:27.000Z</time>
      </trkpt>
      <trkpt lat="44.3363" lon="0.65307">
        <ele>210.4</ele>
        <time>2020-08-02T08:44:13.000Z</time>
      </trkpt>
      <trkpt lat="44.3363" lon="0.65307">
        <ele>210.4</ele>
        <time>2020-08-02T08:43:59.000Z</time>
      </trkpt>
      <trkpt lat="44.3363" lon="0.65303">
        <ele>210.2</ele>
        <time>2020-08-02T08:43:45.000Z</time>
      </trkpt>
      <trkpt lat="44.33631" lon="0.653">
        <ele>210.1</ele>
        <time>2020-08-02T08:43:32.000Z</time>
      </trkpt>
      <trkpt lat="44.33631" lon="0.653">
        <ele>210.1</ele>
        <time>2020-08-02T08:43:18.000Z</time>
      </trkpt>
      <trkpt lat="44.33632" lon="0.653">
        <ele>210.1</ele>
        <time>2020-08-02T08:43:05.000Z</time>
      </trkpt>
      <trkpt lat="44.33631" lon="0.65299">
        <ele>210</ele>
        <time>2020-08-02T08:42:51.000Z</time>
      </trkpt>
      <trkpt lat="44.33631" lon="0.65298">
        <ele>209.8</ele>
        <time>2020-08-02T08:42:38.000Z</time>
      </trkpt>
      <trkpt lat="44.33634" lon="0.65293">
        <ele>209.7</ele>
        <time>2020-08-02T08:42:24.000Z</time>
      </trkpt>
      <trkpt lat="44.33643" lon="0.65276">
        <ele>209.2</ele>
        <time>2020-08-02T08:42:11.000Z</time>
      </trkpt>
      <trkpt lat="44.33653" lon="0.65259">
        <ele>208.6</ele>
        <time>2020-08-02T08:41:58.000Z</time>
      </trkpt>
      <trkpt lat="44.33662" lon="0.65241">
        <ele>208.3</ele>
        <time>2020-08-02T08:41:44.000Z</time>
      </trkpt>
      <trkpt lat="44.33669" lon="0.65222">
        <ele>208.1</ele>
        <time>2020-08-02T08:41:31.000Z</time>
      </trkpt>
      <trkpt lat="44.33674" lon="0.65203">
        <ele>207.8</ele>
        <time>2020-08-02T08:41:17.000Z</time>
      </trkpt>
      <trkpt lat="44.33677" lon="0.65184">
        <ele>207.2</ele>
        <time>2020-08-02T08:41:04.000Z</time>
      </trkpt>
      <trkpt lat="44.33682" lon="0.65164">
        <ele>206.4</ele>
        <time>2020-08-02T08:40:50.000Z</time>
      </trkpt>
      <trkpt lat="44.3369" lon="0.65148">
        <ele>206.2</ele>
        <time>2020-08-02T08:40:37.000Z</time>
      </trkpt>
      <trkpt lat="44.33699" lon="0.6513">
        <ele>205.5</ele>
        <time>2020-08-02T08:40:23.000Z</time>
      </trkpt>
      <trkpt lat="44.33707" lon="0.65113">
        <ele>204.6</ele>
        <time>2020-08-02T08:40:10.000Z</time>
      </trkpt>
      <trkpt lat="44.33718" lon="0.65097">
        <ele>204.3</ele>
        <time>2020-08-02T08:39:56.000Z</time>
      </trkpt>
      <trkpt lat="44.33724" lon="0.65081">
        <ele>204</ele>
        <time>2020-08-02T08:39:43.000Z</time>
      </trkpt>
      <trkpt lat="44.33732" lon="0.65064">
        <ele>204</ele>
        <time>2020-08-02T08:39:29.000Z</time>
      </trkpt>
      <trkpt lat="44.33742" lon="0.65047">
        <ele>204.4</ele>
        <time>2020-08-02T08:39:16.000Z</time>
      </trkpt>
      <trkpt lat="44.33753" lon="0.65029">
        <ele>205.3</ele>
        <time>2020-08-02T08:39:02.000Z</time>
      </trkpt>
      <trkpt lat="44.33763" lon="0.65015">
        <ele>206.4</ele>
        <time>2020-08-02T08:38:49.000Z</time>
      </trkpt>
      <trkpt lat="44.33774" lon="0.64998">
        <ele>207.5</ele>
        <time>2020-08-02T08:38:35.000Z</time>
      </trkpt>
      <trkpt lat="44.33782" lon="0.6498">
        <ele>208</ele>
        <time>2020-08-02T08:38:22.000Z</time>
      </trkpt>
      <trkpt lat="44.33789" lon="0.6496">
        <ele>207.6</ele>
        <time>2020-08-02T08:38:08.000Z</time>
      </trkpt>
      <trkpt lat="44.33796" lon="0.64942">
        <ele>206.9</ele>
        <time>2020-08-02T08:37:55.000Z</time>
      </trkpt>
      <trkpt lat="44.33802" lon="0.64921">
        <ele>206</ele>
        <time>2020-08-02T08:37:41.000Z</time>
      </trkpt>
      <trkpt lat="44.33808" lon="0.64901">
        <ele>205.3</ele>
        <time>2020-08-02T08:37:28.000Z</time>
      </trkpt>
      <trkpt lat="44.33813" lon="0.64882">
        <ele>204.5</ele>
        <time>2020-08-02T08:37:15.000Z</time>
      </trkpt>
      <trkpt lat="44.33819" lon="0.64861">
        <ele>203.5</ele>
        <time>2020-08-02T08:37:01.000Z</time>
      </trkpt>
      <trkpt lat="44.33825" lon="0.64845">
        <ele>202.9</ele>
        <time>2020-08-02T08:36:48.000Z</time>
      </trkpt>
      <trkpt lat="44.33834" lon="0.64829">
        <ele>202.8</ele>
        <time>2020-08-02T08:36:34.000Z</time>
      </trkpt>
      <trkpt lat="44.33843" lon="0.64813">
        <ele>202.3</ele>
        <time>2020-08-02T08:36:21.000Z</time>
      </trkpt>
      <trkpt lat="44.33852" lon="0.64796">
        <ele>201.7</ele>
        <time>2020-08-02T08:36:07.000Z</time>
      </trkpt>
      <trkpt lat="44.33861" lon="0.64781">
        <ele>201.1</ele>
        <time>2020-08-02T08:35:54.000Z</time>
      </trkpt>
      <trkpt lat="44.3387" lon="0.64765">
        <ele>201</ele>
        <time>2020-08-02T08:35:40.000Z</time>
      </trkpt>
      <trkpt lat="44.33878" lon="0.64749">
        <ele>201</ele>
        <time>2020-08-02T08:35:27.000Z</time>
      </trkpt>
      <trkpt lat="44.33887" lon="0.64733">
        <ele>201</ele>
        <time>2020-08-02T08:35:13.000Z</time>
      </trkpt>
      <trkpt lat="44.33894" lon="0.64718">
        <ele>201</ele>
        <time>2020-08-02T08:35:00.000Z</time>
      </trkpt>
      <trkpt lat="44.33905" lon="0.64705">
        <ele>200.6</ele>
        <time>2020-08-02T08:34:46.000Z</time>
      </trkpt>
      <trkpt lat="44.33916" lon="0.64695">
        <ele>200</ele>
        <time>2020-08-02T08:34:33.000Z</time>
      </trkpt>
      <trkpt lat="44.33928" lon="0.64687">
        <ele>199.7</ele>
        <time>2020-08-02T08:34:19.000Z</time>
      </trkpt>
      <trkpt lat="44.33936" lon="0.64677">
        <ele>199.6</ele>
        <time>2020-08-02T08:34:06.000Z</time>
      </trkpt>
      <trkpt lat="44.33945" lon="0.64671">
        <ele>200</ele>
        <time>2020-08-02T08:33:52.000Z</time>
      </trkpt>
      <trkpt lat="44.33955" lon="0.64672">
        <ele>200</ele>
        <time>2020-08-02T08:33:39.000Z</time>
      </trkpt>
      <trkpt lat="44.3397" lon="0.6467">
        <ele>200</ele>
        <time>2020-08-02T08:33:25.000Z</time>
      </trkpt>
      <trkpt lat="44.33984" lon="0.6467">
        <ele>199.2</ele>
        <time>2020-08-02T08:33:12.000Z</time>
      </trkpt>
      <trkpt lat="44.34" lon="0.64676">
        <ele>198.7</ele>
        <time>2020-08-02T08:32:58.000Z</time>
      </trkpt>
      <trkpt lat="44.34014" lon="0.64674">
        <ele>198.9</ele>
        <time>2020-08-02T08:32:45.000Z</time>
      </trkpt>
      <trkpt lat="44.34029" lon="0.64675">
        <ele>199.3</ele>
        <time>2020-08-02T08:32:32.000Z</time>
      </trkpt>
      <trkpt lat="44.34045" lon="0.64678">
        <ele>199.4</ele>
        <time>2020-08-02T08:32:18.000Z</time>
      </trkpt>
      <trkpt lat="44.34059" lon="0.64681">
        <ele>199.3</ele>
        <time>2020-08-02T08:32:05.000Z</time>
      </trkpt>
      <trkpt lat="44.34073" lon="0.64684">
        <ele>198.8</ele>
        <time>2020-08-02T08:31:51.000Z</time>
      </trkpt>
      <trkpt lat="44.34084" lon="0.64688">
        <ele>198.5</ele>
        <time>2020-08-02T08:31:38.000Z</time>
      </trkpt>
      <trkpt lat="44.34089" lon="0.6469">
        <ele>198.5</ele>
        <time>2020-08-02T08:31:24.000Z</time>
      </trkpt>
      <trkpt lat="44.3409" lon="0.64689">
        <ele>198.4</ele>
        <time>2020-08-02T08:31:10.000Z</time>
      </trkpt>
      <trkpt lat="44.34091" lon="0.64689">
        <ele>198.4</ele>
        <time>2020-08-02T08:30:56.000Z</time>
      </trkpt>
      <trkpt lat="44.34092" lon="0.64689">
        <ele>198.3</ele>
        <time>2020-08-02T08:30:43.000Z</time>
      </trkpt>
      <trkpt lat="44.34091" lon="0.64689">
        <ele>198.3</ele>
        <time>2020-08-02T08:30:29.000Z</time>
      </trkpt>
      <trkpt lat="44.34092" lon="0.64688">
        <ele>198.3</ele>
        <time>2020-08-02T08:30:16.000Z</time>
      </trkpt>
      <trkpt lat="44.34092" lon="0.64689">
        <ele>198.3</ele>
        <time>2020-08-02T08:30:02.000Z</time>
      </trkpt>
      <trkpt lat="44.34092" lon="0.64689">
        <ele>198.3</ele>
        <time>2020-08-02T08:29:48.000Z</time>
      </trkpt>
      <trkpt lat="44.34092" lon="0.64689">
        <ele>198.4</ele>
        <time>2020-08-02T08:29:34.000Z</time>
      </trkpt>
      <trkpt lat="44.34092" lon="0.64689">
        <ele>198.4</ele>
        <time>2020-08-02T08:29:21.000Z</time>
      </trkpt>
      <trkpt lat="44.34093" lon="0.6469">
        <ele>198.4</ele>
        <time>2020-08-02T08:29:07.000Z</time>
      </trkpt>
      <trkpt lat="44.34094" lon="0.6469">
        <ele>198.4</ele>
        <time>2020-08-02T08:28:54.000Z</time>
      </trkpt>
      <trkpt lat="44.34093" lon="0.6469">
        <ele>198.4</ele>
        <time>2020-08-02T08:28:40.000Z</time>
      </trkpt>
      <trkpt lat="44.34093" lon="0.64691">
        <ele>198.4</ele>
        <time>2020-08-02T08:28:27.000Z</time>
      </trkpt>
      <trkpt lat="44.34093" lon="0.64689">
        <ele>198.3</ele>
        <time>2020-08-02T08:28:12.000Z</time>
      </trkpt>
      <trkpt lat="44.34093" lon="0.64689">
        <ele>198.3</ele>
        <time>2020-08-02T08:27:59.000Z</time>
      </trkpt>
      <trkpt lat="44.34102" lon="0.6469">
        <ele>198.1</ele>
        <time>2020-08-02T08:27:46.000Z</time>
      </trkpt>
      <trkpt lat="44.34118" lon="0.64691">
        <ele>197.9</ele>
        <time>2020-08-02T08:27:32.000Z</time>
      </trkpt>
      <trkpt lat="44.34132" lon="0.64694">
        <ele>198</ele>
        <time>2020-08-02T08:27:19.000Z</time>
      </trkpt>
      <trkpt lat="44.34149" lon="0.64699">
        <ele>198</ele>
        <time>2020-08-02T08:27:05.000Z</time>
      </trkpt>
      <trkpt lat="44.34163" lon="0.64702">
        <ele>198</ele>
        <time>2020-08-02T08:26:52.000Z</time>
      </trkpt>
      <trkpt lat="44.34179" lon="0.64702">
        <ele>198.1</ele>
        <time>2020-08-02T08:26:38.000Z</time>
      </trkpt>
      <trkpt lat="44.34193" lon="0.64694">
        <ele>198</ele>
        <time>2020-08-02T08:26:25.000Z</time>
      </trkpt>
      <trkpt lat="44.34206" lon="0.64683">
        <ele>198.9</ele>
        <time>2020-08-02T08:26:11.000Z</time>
      </trkpt>
      <trkpt lat="44.3422" lon="0.64676">
        <ele>199.8</ele>
        <time>2020-08-02T08:25:58.000Z</time>
      </trkpt>
      <trkpt lat="44.34235" lon="0.64668">
        <ele>200</ele>
        <time>2020-08-02T08:25:44.000Z</time>
      </trkpt>
      <trkpt lat="44.34247" lon="0.64657">
        <ele>199.7</ele>
        <time>2020-08-02T08:25:31.000Z</time>
      </trkpt>
      <trkpt lat="44.34261" lon="0.64645">
        <ele>198.9</ele>
        <time>2020-08-02T08:25:17.000Z</time>
      </trkpt>
      <trkpt lat="44.34272" lon="0.64632">
        <ele>198.2</ele>
        <time>2020-08-02T08:25:04.000Z</time>
      </trkpt>
      <trkpt lat="44.34285" lon="0.6462">
        <ele>198.2</ele>
        <time>2020-08-02T08:24:50.000Z</time>
      </trkpt>
      <trkpt lat="44.34298" lon="0.6461">
        <ele>198.7</ele>
        <time>2020-08-02T08:24:37.000Z</time>
      </trkpt>
      <trkpt lat="44.34314" lon="0.64609">
        <ele>199.9</ele>
        <time>2020-08-02T08:24:23.000Z</time>
      </trkpt>
      <trkpt lat="44.34329" lon="0.64602">
        <ele>201.6</ele>
        <time>2020-08-02T08:24:10.000Z</time>
      </trkpt>
      <trkpt lat="44.34347" lon="0.64602">
        <ele>202</ele>
        <time>2020-08-02T08:23:56.000Z</time>
      </trkpt>
      <trkpt lat="44.34364" lon="0.64592">
        <ele>202</ele>
        <time>2020-08-02T08:23:43.000Z</time>
      </trkpt>
      <trkpt lat="44.34383" lon="0.64589">
        <ele>202</ele>
        <time>2020-08-02T08:23:29.000Z</time>
      </trkpt>
      <trkpt lat="44.34398" lon="0.64586">
        <ele>201.7</ele>
        <time>2020-08-02T08:23:16.000Z</time>
      </trkpt>
      <trkpt lat="44.34411" lon="0.64585">
        <ele>201.2</ele>
        <time>2020-08-02T08:23:03.000Z</time>
      </trkpt>
      <trkpt lat="44.34425" lon="0.64583">
        <ele>201</ele>
        <time>2020-08-02T08:22:49.000Z</time>
      </trkpt>
      <trkpt lat="44.34436" lon="0.64581">
        <ele>201</ele>
        <time>2020-08-02T08:22:36.000Z</time>
      </trkpt>
      <trkpt lat="44.34449" lon="0.64578">
        <ele>200.8</ele>
        <time>2020-08-02T08:22:22.000Z</time>
      </trkpt>
      <trkpt lat="44.34463" lon="0.64574">
        <ele>200.3</ele>
        <time>2020-08-02T08:22:09.000Z</time>
      </trkpt>
      <trkpt lat="44.34478" lon="0.64568">
        <ele>199.9</ele>
        <time>2020-08-02T08:21:55.000Z</time>
      </trkpt>
      <trkpt lat="44.34492" lon="0.64563">
        <ele>199.8</ele>
        <time>2020-08-02T08:21:42.000Z</time>
      </trkpt>
      <trkpt lat="44.34507" lon="0.6456">
        <ele>199.6</ele>
        <time>2020-08-02T08:21:28.000Z</time>
      </trkpt>
      <trkpt lat="44.34521" lon="0.64555">
        <ele>199.2</ele>
        <time>2020-08-02T08:21:15.000Z</time>
      </trkpt>
      <trkpt lat="44.34536" lon="0.6455">
        <ele>199.2</ele>
        <time>2020-08-02T08:21:01.000Z</time>
      </trkpt>
      <trkpt lat="44.34548" lon="0.64546">
        <ele>199.4</ele>
        <time>2020-08-02T08:20:48.000Z</time>
      </trkpt>
      <trkpt lat="44.34562" lon="0.64543">
        <ele>199.4</ele>
        <time>2020-08-02T08:20:34.000Z</time>
      </trkpt>
      <trkpt lat="44.34576" lon="0.64542">
        <ele>199.1</ele>
        <time>2020-08-02T08:20:21.000Z</time>
      </trkpt>
      <trkpt lat="44.34592" lon="0.64548">
        <ele>199.2</ele>
        <time>2020-08-02T08:20:07.000Z</time>
      </trkpt>
      <trkpt lat="44.346" lon="0.64553">
        <ele>199.5</ele>
        <time>2020-08-02T08:19:54.000Z</time>
      </trkpt>
      <trkpt lat="44.34616" lon="0.64544">
        <ele>199.7</ele>
        <time>2020-08-02T08:19:40.000Z</time>
      </trkpt>
      <trkpt lat="44.34631" lon="0.64538">
        <ele>200.1</ele>
        <time>2020-08-02T08:19:27.000Z</time>
      </trkpt>
      <trkpt lat="44.34644" lon="0.64538">
        <ele>200.4</ele>
        <time>2020-08-02T08:19:13.000Z</time>
      </trkpt>
      <trkpt lat="44.34657" lon="0.64535">
        <ele>200.3</ele>
        <time>2020-08-02T08:19:00.000Z</time>
      </trkpt>
      <trkpt lat="44.34667" lon="0.6453">
        <ele>200.1</ele>
        <time>2020-08-02T08:18:46.000Z</time>
      </trkpt>
      <trkpt lat="44.34677" lon="0.64523">
        <ele>199.9</ele>
        <time>2020-08-02T08:18:33.000Z</time>
      </trkpt>
      <trkpt lat="44.34689" lon="0.64515">
        <ele>199.9</ele>
        <time>2020-08-02T08:18:20.000Z</time>
      </trkpt>
      <trkpt lat="44.34703" lon="0.64504">
        <ele>199.7</ele>
        <time>2020-08-02T08:18:06.000Z</time>
      </trkpt>
      <trkpt lat="44.34719" lon="0.64505">
        <ele>199.1</ele>
        <time>2020-08-02T08:17:53.000Z</time>
      </trkpt>
      <trkpt lat="44.34735" lon="0.64514">
        <ele>198.5</ele>
        <time>2020-08-02T08:17:39.000Z</time>
      </trkpt>
      <trkpt lat="44.34747" lon="0.64526">
        <ele>198.1</ele>
        <time>2020-08-02T08:17:26.000Z</time>
      </trkpt>
      <trkpt lat="44.34761" lon="0.64536">
        <ele>197.2</ele>
        <time>2020-08-02T08:17:12.000Z</time>
      </trkpt>
      <trkpt lat="44.34776" lon="0.64543">
        <ele>196.1</ele>
        <time>2020-08-02T08:16:59.000Z</time>
      </trkpt>
      <trkpt lat="44.34786" lon="0.64532">
        <ele>195.4</ele>
        <time>2020-08-02T08:16:45.000Z</time>
      </trkpt>
      <trkpt lat="44.34799" lon="0.64519">
        <ele>194.5</ele>
        <time>2020-08-02T08:16:32.000Z</time>
      </trkpt>
      <trkpt lat="44.34812" lon="0.64508">
        <ele>193.8</ele>
        <time>2020-08-02T08:16:18.000Z</time>
      </trkpt>
      <trkpt lat="44.34823" lon="0.64502">
        <ele>193.4</ele>
        <time>2020-08-02T08:16:05.000Z</time>
      </trkpt>
      <trkpt lat="44.34836" lon="0.64497">
        <ele>193.1</ele>
        <time>2020-08-02T08:15:51.000Z</time>
      </trkpt>
      <trkpt lat="44.34851" lon="0.64501">
        <ele>193.7</ele>
        <time>2020-08-02T08:15:38.000Z</time>
      </trkpt>
      <trkpt lat="44.34868" lon="0.6451">
        <ele>194.3</ele>
        <time>2020-08-02T08:15:24.000Z</time>
      </trkpt>
      <trkpt lat="44.34882" lon="0.64516">
        <ele>194.2</ele>
        <time>2020-08-02T08:15:11.000Z</time>
      </trkpt>
      <trkpt lat="44.34892" lon="0.6452">
        <ele>194.1</ele>
        <time>2020-08-02T08:14:57.000Z</time>
      </trkpt>
      <trkpt lat="44.34905" lon="0.64522">
        <ele>194.7</ele>
        <time>2020-08-02T08:14:44.000Z</time>
      </trkpt>
      <trkpt lat="44.3492" lon="0.64524">
        <ele>195.4</ele>
        <time>2020-08-02T08:14:30.000Z</time>
      </trkpt>
      <trkpt lat="44.34935" lon="0.64528">
        <ele>196.3</ele>
        <time>2020-08-02T08:14:17.000Z</time>
      </trkpt>
      <trkpt lat="44.3495" lon="0.6453">
        <ele>197.3</ele>
        <time>2020-08-02T08:14:03.000Z</time>
      </trkpt>
      <trkpt lat="44.34964" lon="0.64532">
        <ele>198.4</ele>
        <time>2020-08-02T08:13:50.000Z</time>
      </trkpt>
      <trkpt lat="44.34978" lon="0.64532">
        <ele>199.4</ele>
        <time>2020-08-02T08:13:37.000Z</time>
      </trkpt>
      <trkpt lat="44.34993" lon="0.64533">
        <ele>200.5</ele>
        <time>2020-08-02T08:13:23.000Z</time>
      </trkpt>
      <trkpt lat="44.35008" lon="0.64536">
        <ele>201</ele>
        <time>2020-08-02T08:13:10.000Z</time>
      </trkpt>
      <trkpt lat="44.35023" lon="0.6454">
        <ele>201</ele>
        <time>2020-08-02T08:12:56.000Z</time>
      </trkpt>
      <trkpt lat="44.35036" lon="0.64549">
        <ele>200.3</ele>
        <time>2020-08-02T08:12:43.000Z</time>
      </trkpt>
      <trkpt lat="44.35051" lon="0.6456">
        <ele>199.7</ele>
        <time>2020-08-02T08:12:29.000Z</time>
      </trkpt>
      <trkpt lat="44.35065" lon="0.64571">
        <ele>199.4</ele>
        <time>2020-08-02T08:12:16.000Z</time>
      </trkpt>
      <trkpt lat="44.35079" lon="0.6458">
        <ele>199</ele>
        <time>2020-08-02T08:12:02.000Z</time>
      </trkpt>
      <trkpt lat="44.35091" lon="0.64588">
        <ele>199.2</ele>
        <time>2020-08-02T08:11:49.000Z</time>
      </trkpt>
      <trkpt lat="44.35105" lon="0.64597">
        <ele>199.5</ele>
        <time>2020-08-02T08:11:35.000Z</time>
      </trkpt>
      <trkpt lat="44.35117" lon="0.64608">
        <ele>200.1</ele>
        <time>2020-08-02T08:11:22.000Z</time>
      </trkpt>
      <trkpt lat="44.35131" lon="0.64622">
        <ele>201.1</ele>
        <time>2020-08-02T08:11:08.000Z</time>
      </trkpt>
      <trkpt lat="44.35144" lon="0.64632">
        <ele>202.2</ele>
        <time>2020-08-02T08:10:55.000Z</time>
      </trkpt>
      <trkpt lat="44.35156" lon="0.64638">
        <ele>203.8</ele>
        <time>2020-08-02T08:10:41.000Z</time>
      </trkpt>
      <trkpt lat="44.35166" lon="0.64644">
        <ele>205.2</ele>
        <time>2020-08-02T08:10:28.000Z</time>
      </trkpt>
      <trkpt lat="44.3518" lon="0.64654">
        <ele>206</ele>
        <time>2020-08-02T08:10:14.000Z</time>
      </trkpt>
      <trkpt lat="44.35188" lon="0.64668">
        <ele>206.8</ele>
        <time>2020-08-02T08:10:01.000Z</time>
      </trkpt>
      <trkpt lat="44.35178" lon="0.64682">
        <ele>207</ele>
        <time>2020-08-02T08:09:47.000Z</time>
      </trkpt>
      <trkpt lat="44.35169" lon="0.64696">
        <ele>207.1</ele>
        <time>2020-08-02T08:09:34.000Z</time>
      </trkpt>
      <trkpt lat="44.35161" lon="0.64713">
        <ele>207.5</ele>
        <time>2020-08-02T08:09:20.000Z</time>
      </trkpt>
      <trkpt lat="44.35161" lon="0.64714">
        <ele>207.5</ele>
        <time>2020-08-02T08:09:07.000Z</time>
      </trkpt>
      <trkpt lat="44.35159" lon="0.64726">
        <ele>207.8</ele>
        <time>2020-08-02T08:08:54.000Z</time>
      </trkpt>
      <trkpt lat="44.35157" lon="0.64747">
        <ele>208.3</ele>
        <time>2020-08-02T08:08:40.000Z</time>
      </trkpt>
      <trkpt lat="44.3516" lon="0.64766">
        <ele>207.8</ele>
        <time>2020-08-02T08:08:27.000Z</time>
      </trkpt>
      <trkpt lat="44.35158" lon="0.64787">
        <ele>207.3</ele>
        <time>2020-08-02T08:08:13.000Z</time>
      </trkpt>
      <trkpt lat="44.3515" lon="0.64801">
        <ele>207.4</ele>
        <time>2020-08-02T08:08:00.000Z</time>
      </trkpt>
      <trkpt lat="44.35139" lon="0.64814">
        <ele>207.4</ele>
        <time>2020-08-02T08:07:46.000Z</time>
      </trkpt>
      <trkpt lat="44.35128" lon="0.64826">
        <ele>206.8</ele>
        <time>2020-08-02T08:07:33.000Z</time>
      </trkpt>
      <trkpt lat="44.35118" lon="0.64842">
        <ele>206.1</ele>
        <time>2020-08-02T08:07:19.000Z</time>
      </trkpt>
      <trkpt lat="44.35108" lon="0.64857">
        <ele>205.4</ele>
        <time>2020-08-02T08:07:06.000Z</time>
      </trkpt>
      <trkpt lat="44.351" lon="0.64872">
        <ele>204.7</ele>
        <time>2020-08-02T08:06:52.000Z</time>
      </trkpt>
      <trkpt lat="44.35092" lon="0.64887">
        <ele>204.8</ele>
        <time>2020-08-02T08:06:39.000Z</time>
      </trkpt>
      <trkpt lat="44.35083" lon="0.64903">
        <ele>205.5</ele>
        <time>2020-08-02T08:06:25.000Z</time>
      </trkpt>
      <trkpt lat="44.35076" lon="0.64919">
        <ele>205.6</ele>
        <time>2020-08-02T08:06:12.000Z</time>
      </trkpt>
      <trkpt lat="44.35069" lon="0.64937">
        <ele>206.1</ele>
        <time>2020-08-02T08:05:58.000Z</time>
      </trkpt>
      <trkpt lat="44.35063" lon="0.64956">
        <ele>206.1</ele>
        <time>2020-08-02T08:05:45.000Z</time>
      </trkpt>
      <trkpt lat="44.35055" lon="0.64976">
        <ele>205.9</ele>
        <time>2020-08-02T08:05:31.000Z</time>
      </trkpt>
      <trkpt lat="44.35051" lon="0.64996">
        <ele>205.1</ele>
        <time>2020-08-02T08:05:18.000Z</time>
      </trkpt>
      <trkpt lat="44.35046" lon="0.65016">
        <ele>204</ele>
        <time>2020-08-02T08:05:04.000Z</time>
      </trkpt>
      <trkpt lat="44.3504" lon="0.65037">
        <ele>203.1</ele>
        <time>2020-08-02T08:04:51.000Z</time>
      </trkpt>
      <trkpt lat="44.35036" lon="0.65054">
        <ele>202.1</ele>
        <time>2020-08-02T08:04:37.000Z</time>
      </trkpt>
      <trkpt lat="44.35033" lon="0.65069">
        <ele>201.5</ele>
        <time>2020-08-02T08:04:24.000Z</time>
      </trkpt>
      <trkpt lat="44.35029" lon="0.65088">
        <ele>201</ele>
        <time>2020-08-02T08:04:11.000Z</time>
      </trkpt>
      <trkpt lat="44.35029" lon="0.65109">
        <ele>201</ele>
        <time>2020-08-02T08:03:57.000Z</time>
      </trkpt>
      <trkpt lat="44.35028" lon="0.65127">
        <ele>201</ele>
        <time>2020-08-02T08:03:44.000Z</time>
      </trkpt>
      <trkpt lat="44.35026" lon="0.65147">
        <ele>200.6</ele>
        <time>2020-08-02T08:03:30.000Z</time>
      </trkpt>
      <trkpt lat="44.35024" lon="0.65166">
        <ele>199.9</ele>
        <time>2020-08-02T08:03:17.000Z</time>
      </trkpt>
      <trkpt lat="44.35022" lon="0.65186">
        <ele>199.8</ele>
        <time>2020-08-02T08:03:03.000Z</time>
      </trkpt>
      <trkpt lat="44.35021" lon="0.65204">
        <ele>199.4</ele>
        <time>2020-08-02T08:02:50.000Z</time>
      </trkpt>
      <trkpt lat="44.35019" lon="0.65224">
        <ele>198.7</ele>
        <time>2020-08-02T08:02:36.000Z</time>
      </trkpt>
      <trkpt lat="44.35018" lon="0.65241">
        <ele>198.2</ele>
        <time>2020-08-02T08:02:23.000Z</time>
      </trkpt>
      <trkpt lat="44.35018" lon="0.65261">
        <ele>197.5</ele>
        <time>2020-08-02T08:02:09.000Z</time>
      </trkpt>
      <trkpt lat="44.35017" lon="0.6528">
        <ele>196.5</ele>
        <time>2020-08-02T08:01:56.000Z</time>
      </trkpt>
      <trkpt lat="44.35016" lon="0.65299">
        <ele>195.8</ele>
        <time>2020-08-02T08:01:42.000Z</time>
      </trkpt>
      <trkpt lat="44.35015" lon="0.65317">
        <ele>194.9</ele>
        <time>2020-08-02T08:01:29.000Z</time>
      </trkpt>
      <trkpt lat="44.35014" lon="0.65337">
        <ele>193.8</ele>
        <time>2020-08-02T08:01:15.000Z</time>
      </trkpt>
      <trkpt lat="44.35012" lon="0.65354">
        <ele>193.1</ele>
        <time>2020-08-02T08:01:02.000Z</time>
      </trkpt>
      <trkpt lat="44.35011" lon="0.65366">
        <ele>192.4</ele>
        <time>2020-08-02T08:00:48.000Z</time>
      </trkpt>
      <trkpt lat="44.3501" lon="0.65372">
        <ele>192</ele>
        <time>2020-08-02T08:00:35.000Z</time>
      </trkpt>
      <trkpt lat="44.35015" lon="0.65383">
        <ele>191.5</ele>
        <time>2020-08-02T08:00:21.000Z</time>
      </trkpt>
      <trkpt lat="44.35025" lon="0.65371">
        <ele>193.1</ele>
        <time>2020-08-02T08:00:08.000Z</time>
      </trkpt>
      <trkpt lat="44.35037" lon="0.65358">
        <ele>194.4</ele>
        <time>2020-08-02T07:59:54.000Z</time>
      </trkpt>
      <trkpt lat="44.3505" lon="0.65351">
        <ele>195.2</ele>
        <time>2020-08-02T07:59:41.000Z</time>
      </trkpt>
      <trkpt lat="44.35064" lon="0.65345">
        <ele>195.7</ele>
        <time>2020-08-02T07:59:28.000Z</time>
      </trkpt>
      <trkpt lat="44.35079" lon="0.65341">
        <ele>196</ele>
        <time>2020-08-02T07:59:14.000Z</time>
      </trkpt>
      <trkpt lat="44.35093" lon="0.65337">
        <ele>196</ele>
        <time>2020-08-02T07:59:01.000Z</time>
      </trkpt>
      <trkpt lat="44.35108" lon="0.65332">
        <ele>196</ele>
        <time>2020-08-02T07:58:47.000Z</time>
      </trkpt>
      <trkpt lat="44.35122" lon="0.65326">
        <ele>196</ele>
        <time>2020-08-02T07:58:34.000Z</time>
      </trkpt>
      <trkpt lat="44.35137" lon="0.65318">
        <ele>196</ele>
        <time>2020-08-02T07:58:20.000Z</time>
      </trkpt>
      <trkpt lat="44.3515" lon="0.65309">
        <ele>195.5</ele>
        <time>2020-08-02T07:58:07.000Z</time>
      </trkpt>
      <trkpt lat="44.35164" lon="0.65297">
        <ele>195.1</ele>
        <time>2020-08-02T07:57:53.000Z</time>
      </trkpt>
      <trkpt lat="44.35176" lon="0.65286">
        <ele>194.2</ele>
        <time>2020-08-02T07:57:40.000Z</time>
      </trkpt>
      <trkpt lat="44.3519" lon="0.65275">
        <ele>193.4</ele>
        <time>2020-08-02T07:57:26.000Z</time>
      </trkpt>
      <trkpt lat="44.35206" lon="0.65271">
        <ele>192.7</ele>
        <time>2020-08-02T07:57:13.000Z</time>
      </trkpt>
      <trkpt lat="44.35221" lon="0.65268">
        <ele>192.1</ele>
        <time>2020-08-02T07:56:59.000Z</time>
      </trkpt>
      <trkpt lat="44.35236" lon="0.65265">
        <ele>191.5</ele>
        <time>2020-08-02T07:56:46.000Z</time>
      </trkpt>
      <trkpt lat="44.35252" lon="0.65261">
        <ele>190.9</ele>
        <time>2020-08-02T07:56:32.000Z</time>
      </trkpt>
      <trkpt lat="44.35267" lon="0.65258">
        <ele>190.4</ele>
        <time>2020-08-02T07:56:19.000Z</time>
      </trkpt>
      <trkpt lat="44.35282" lon="0.65254">
        <ele>189.8</ele>
        <time>2020-08-02T07:56:05.000Z</time>
      </trkpt>
      <trkpt lat="44.35297" lon="0.65251">
        <ele>189.3</ele>
        <time>2020-08-02T07:55:52.000Z</time>
      </trkpt>
      <trkpt lat="44.35312" lon="0.65248">
        <ele>188.5</ele>
        <time>2020-08-02T07:55:38.000Z</time>
      </trkpt>
      <trkpt lat="44.35327" lon="0.65245">
        <ele>187.3</ele>
        <time>2020-08-02T07:55:25.000Z</time>
      </trkpt>
      <trkpt lat="44.35342" lon="0.65244">
        <ele>186.2</ele>
        <time>2020-08-02T07:55:11.000Z</time>
      </trkpt>
      <trkpt lat="44.35357" lon="0.65248">
        <ele>185.2</ele>
        <time>2020-08-02T07:54:58.000Z</time>
      </trkpt>
      <trkpt lat="44.35371" lon="0.65252">
        <ele>183.8</ele>
        <time>2020-08-02T07:54:45.000Z</time>
      </trkpt>
      <trkpt lat="44.35387" lon="0.65251">
        <ele>182.2</ele>
        <time>2020-08-02T07:54:31.000Z</time>
      </trkpt>
      <trkpt lat="44.35401" lon="0.65242">
        <ele>181.3</ele>
        <time>2020-08-02T07:54:18.000Z</time>
      </trkpt>
      <trkpt lat="44.35417" lon="0.65231">
        <ele>181</ele>
        <time>2020-08-02T07:54:04.000Z</time>
      </trkpt>
      <trkpt lat="44.35432" lon="0.65232">
        <ele>182.1</ele>
        <time>2020-08-02T07:53:51.000Z</time>
      </trkpt>
      <trkpt lat="44.35448" lon="0.65233">
        <ele>183.3</ele>
        <time>2020-08-02T07:53:37.000Z</time>
      </trkpt>
      <trkpt lat="44.35462" lon="0.65234">
        <ele>184.9</ele>
        <time>2020-08-02T07:53:24.000Z</time>
      </trkpt>
      <trkpt lat="44.35477" lon="0.65235">
        <ele>186.6</ele>
        <time>2020-08-02T07:53:10.000Z</time>
      </trkpt>
      <trkpt lat="44.3549" lon="0.65245">
        <ele>187.7</ele>
        <time>2020-08-02T07:52:57.000Z</time>
      </trkpt>
      <trkpt lat="44.35501" lon="0.65263">
        <ele>188.6</ele>
        <time>2020-08-02T07:52:43.000Z</time>
      </trkpt>
      <trkpt lat="44.35512" lon="0.65279">
        <ele>188.8</ele>
        <time>2020-08-02T07:52:30.000Z</time>
      </trkpt>
      <trkpt lat="44.35526" lon="0.65284">
        <ele>189.6</ele>
        <time>2020-08-02T07:52:16.000Z</time>
      </trkpt>
      <trkpt lat="44.35539" lon="0.65282">
        <ele>190.6</ele>
        <time>2020-08-02T07:52:03.000Z</time>
      </trkpt>
      <trkpt lat="44.35546" lon="0.65256">
        <ele>192.4</ele>
        <time>2020-08-02T07:51:49.000Z</time>
      </trkpt>
      <trkpt lat="44.35552" lon="0.65238">
        <ele>193.3</ele>
        <time>2020-08-02T07:51:36.000Z</time>
      </trkpt>
      <trkpt lat="44.35557" lon="0.6522">
        <ele>194.1</ele>
        <time>2020-08-02T07:51:22.000Z</time>
      </trkpt>
      <trkpt lat="44.35561" lon="0.65204">
        <ele>194.8</ele>
        <time>2020-08-02T07:51:09.000Z</time>
      </trkpt>
      <trkpt lat="44.35563" lon="0.65192">
        <ele>195.4</ele>
        <time>2020-08-02T07:50:55.000Z</time>
      </trkpt>
      <trkpt lat="44.35563" lon="0.65195">
        <ele>195.2</ele>
        <time>2020-08-02T07:50:42.000Z</time>
      </trkpt>
      <trkpt lat="44.35563" lon="0.65194">
        <ele>195.3</ele>
        <time>2020-08-02T07:50:28.000Z</time>
      </trkpt>
      <trkpt lat="44.35566" lon="0.65185">
        <ele>195.7</ele>
        <time>2020-08-02T07:50:15.000Z</time>
      </trkpt>
      <trkpt lat="44.35569" lon="0.65177">
        <ele>196.1</ele>
        <time>2020-08-02T07:50:02.000Z</time>
      </trkpt>
      <trkpt lat="44.35578" lon="0.65172">
        <ele>196.6</ele>
        <time>2020-08-02T07:49:48.000Z</time>
      </trkpt>
      <trkpt lat="44.35594" lon="0.65174">
        <ele>196.4</ele>
        <time>2020-08-02T07:49:35.000Z</time>
      </trkpt>
      <trkpt lat="44.35609" lon="0.65174">
        <ele>195.8</ele>
        <time>2020-08-02T07:49:21.000Z</time>
      </trkpt>
      <trkpt lat="44.35623" lon="0.65169">
        <ele>195.1</ele>
        <time>2020-08-02T07:49:08.000Z</time>
      </trkpt>
      <trkpt lat="44.35638" lon="0.65164">
        <ele>194.3</ele>
        <time>2020-08-02T07:48:54.000Z</time>
      </trkpt>
      <trkpt lat="44.35652" lon="0.65161">
        <ele>193.5</ele>
        <time>2020-08-02T07:48:41.000Z</time>
      </trkpt>
      <trkpt lat="44.35668" lon="0.65153">
        <ele>192.9</ele>
        <time>2020-08-02T07:48:27.000Z</time>
      </trkpt>
      <trkpt lat="44.35682" lon="0.65142">
        <ele>192.2</ele>
        <time>2020-08-02T07:48:14.000Z</time>
      </trkpt>
      <trkpt lat="44.35695" lon="0.65129">
        <ele>192</ele>
        <time>2020-08-02T07:48:00.000Z</time>
      </trkpt>
      <trkpt lat="44.35708" lon="0.65122">
        <ele>192</ele>
        <time>2020-08-02T07:47:47.000Z</time>
      </trkpt>
      <trkpt lat="44.35726" lon="0.65122">
        <ele>191.1</ele>
        <time>2020-08-02T07:47:33.000Z</time>
      </trkpt>
      <trkpt lat="44.35742" lon="0.65125">
        <ele>190.3</ele>
        <time>2020-08-02T07:47:20.000Z</time>
      </trkpt>
      <trkpt lat="44.35761" lon="0.65133">
        <ele>189.7</ele>
        <time>2020-08-02T07:47:06.000Z</time>
      </trkpt>
      <trkpt lat="44.35776" lon="0.65145">
        <ele>189.1</ele>
        <time>2020-08-02T07:46:53.000Z</time>
      </trkpt>
      <trkpt lat="44.35789" lon="0.65162">
        <ele>188.2</ele>
        <time>2020-08-02T07:46:39.000Z</time>
      </trkpt>
      <trkpt lat="44.35801" lon="0.65178">
        <ele>187.8</ele>
        <time>2020-08-02T07:46:26.000Z</time>
      </trkpt>
      <trkpt lat="44.35814" lon="0.65199">
        <ele>187.7</ele>
        <time>2020-08-02T07:46:12.000Z</time>
      </trkpt>
      <trkpt lat="44.35824" lon="0.6522">
        <ele>187.8</ele>
        <time>2020-08-02T07:45:59.000Z</time>
      </trkpt>
      <trkpt lat="44.35833" lon="0.65239">
        <ele>187.4</ele>
        <time>2020-08-02T07:45:45.000Z</time>
      </trkpt>
      <trkpt lat="44.35843" lon="0.65254">
        <ele>187.2</ele>
        <time>2020-08-02T07:45:32.000Z</time>
      </trkpt>
      <trkpt lat="44.35856" lon="0.65271">
        <ele>188.2</ele>
        <time>2020-08-02T07:45:19.000Z</time>
      </trkpt>
      <trkpt lat="44.35866" lon="0.6529">
        <ele>188.2</ele>
        <time>2020-08-02T07:45:05.000Z</time>
      </trkpt>
      <trkpt lat="44.35873" lon="0.65305">
        <ele>187.7</ele>
        <time>2020-08-02T07:44:52.000Z</time>
      </trkpt>
      <trkpt lat="44.35877" lon="0.65319">
        <ele>187.5</ele>
        <time>2020-08-02T07:44:38.000Z</time>
      </trkpt>
      <trkpt lat="44.35878" lon="0.65322">
        <ele>187.6</ele>
        <time>2020-08-02T07:44:25.000Z</time>
      </trkpt>
      <trkpt lat="44.35879" lon="0.65326">
        <ele>187.5</ele>
        <time>2020-08-02T07:44:11.000Z</time>
      </trkpt>
      <trkpt lat="44.35881" lon="0.6533">
        <ele>187.8</ele>
        <time>2020-08-02T07:43:58.000Z</time>
      </trkpt>
      <trkpt lat="44.35883" lon="0.65338">
        <ele>188</ele>
        <time>2020-08-02T07:43:44.000Z</time>
      </trkpt>
      <trkpt lat="44.35885" lon="0.65346">
        <ele>188.2</ele>
        <time>2020-08-02T07:43:31.000Z</time>
      </trkpt>
      <trkpt lat="44.3589" lon="0.65363">
        <ele>189.2</ele>
        <time>2020-08-02T07:43:17.000Z</time>
      </trkpt>
      <trkpt lat="44.35896" lon="0.6538">
        <ele>189.7</ele>
        <time>2020-08-02T07:43:04.000Z</time>
      </trkpt>
      <trkpt lat="44.35901" lon="0.65399">
        <ele>190.5</ele>
        <time>2020-08-02T07:42:50.000Z</time>
      </trkpt>
      <trkpt lat="44.35906" lon="0.65419">
        <ele>191.2</ele>
        <time>2020-08-02T07:42:37.000Z</time>
      </trkpt>
      <trkpt lat="44.3591" lon="0.65437">
        <ele>191.7</ele>
        <time>2020-08-02T07:42:23.000Z</time>
      </trkpt>
      <trkpt lat="44.35915" lon="0.65453">
        <ele>192.3</ele>
        <time>2020-08-02T07:42:10.000Z</time>
      </trkpt>
      <trkpt lat="44.35921" lon="0.65465">
        <ele>192.9</ele>
        <time>2020-08-02T07:41:56.000Z</time>
      </trkpt>
      <trkpt lat="44.35921" lon="0.65471">
        <ele>193.1</ele>
        <time>2020-08-02T07:41:43.000Z</time>
      </trkpt>
      <trkpt lat="44.35924" lon="0.65487">
        <ele>193.8</ele>
        <time>2020-08-02T07:41:29.000Z</time>
      </trkpt>
      <trkpt lat="44.35929" lon="0.65504">
        <ele>194.4</ele>
        <time>2020-08-02T07:41:16.000Z</time>
      </trkpt>
      <trkpt lat="44.35935" lon="0.65522">
        <ele>194.6</ele>
        <time>2020-08-02T07:41:02.000Z</time>
      </trkpt>
      <trkpt lat="44.3594" lon="0.6554">
        <ele>194.8</ele>
        <time>2020-08-02T07:40:49.000Z</time>
      </trkpt>
      <trkpt lat="44.35946" lon="0.65558">
        <ele>194.9</ele>
        <time>2020-08-02T07:40:36.000Z</time>
      </trkpt>
      <trkpt lat="44.35955" lon="0.65576">
        <ele>194.3</ele>
        <time>2020-08-02T07:40:22.000Z</time>
      </trkpt>
      <trkpt lat="44.35963" lon="0.65589">
        <ele>193.5</ele>
        <time>2020-08-02T07:40:09.000Z</time>
      </trkpt>
      <trkpt lat="44.35973" lon="0.65608">
        <ele>192.3</ele>
        <time>2020-08-02T07:39:55.000Z</time>
      </trkpt>
      <trkpt lat="44.35979" lon="0.65626">
        <ele>191.2</ele>
        <time>2020-08-02T07:39:42.000Z</time>
      </trkpt>
      <trkpt lat="44.35979" lon="0.65637">
        <ele>190.4</ele>
        <time>2020-08-02T07:39:28.000Z</time>
      </trkpt>
      <trkpt lat="44.35979" lon="0.65638">
        <ele>190.3</ele>
        <time>2020-08-02T07:39:15.000Z</time>
      </trkpt>
      <trkpt lat="44.3598" lon="0.65639">
        <ele>190.3</ele>
        <time>2020-08-02T07:39:01.000Z</time>
      </trkpt>
      <trkpt lat="44.35982" lon="0.65644">
        <ele>189.6</ele>
        <time>2020-08-02T07:38:48.000Z</time>
      </trkpt>
      <trkpt lat="44.35986" lon="0.65664">
        <ele>186.9</ele>
        <time>2020-08-02T07:38:34.000Z</time>
      </trkpt>
      <trkpt lat="44.35991" lon="0.65686">
        <ele>184.6</ele>
        <time>2020-08-02T07:38:21.000Z</time>
      </trkpt>
      <trkpt lat="44.35989" lon="0.65706">
        <ele>182.5</ele>
        <time>2020-08-02T07:38:07.000Z</time>
      </trkpt>
      <trkpt lat="44.35987" lon="0.65724">
        <ele>180.8</ele>
        <time>2020-08-02T07:37:54.000Z</time>
      </trkpt>
      <trkpt lat="44.35983" lon="0.65746">
        <ele>180.4</ele>
        <time>2020-08-02T07:37:40.000Z</time>
      </trkpt>
      <trkpt lat="44.35976" lon="0.65762">
        <ele>180.8</ele>
        <time>2020-08-02T07:37:27.000Z</time>
      </trkpt>
      <trkpt lat="44.3597" lon="0.65778">
        <ele>181.6</ele>
        <time>2020-08-02T07:37:13.000Z</time>
      </trkpt>
      <trkpt lat="44.35964" lon="0.65799">
        <ele>183.3</ele>
        <time>2020-08-02T07:37:00.000Z</time>
      </trkpt>
      <trkpt lat="44.35961" lon="0.65815">
        <ele>184.7</ele>
        <time>2020-08-02T07:36:46.000Z</time>
      </trkpt>
      <trkpt lat="44.35959" lon="0.6583">
        <ele>186.1</ele>
        <time>2020-08-02T07:36:33.000Z</time>
      </trkpt>
      <trkpt lat="44.35959" lon="0.6585">
        <ele>187.7</ele>
        <time>2020-08-02T07:36:19.000Z</time>
      </trkpt>
      <trkpt lat="44.35958" lon="0.65869">
        <ele>188.8</ele>
        <time>2020-08-02T07:36:06.000Z</time>
      </trkpt>
      <trkpt lat="44.35951" lon="0.65885">
        <ele>189</ele>
        <time>2020-08-02T07:35:53.000Z</time>
      </trkpt>
      <trkpt lat="44.35944" lon="0.65905">
        <ele>188.9</ele>
        <time>2020-08-02T07:35:39.000Z</time>
      </trkpt>
      <trkpt lat="44.35931" lon="0.65945">
        <ele>189.1</ele>
        <time>2020-08-02T07:34:59.000Z</time>
      </trkpt>
      <trkpt lat="44.35908" lon="0.65983">
        <ele>189.1</ele>
        <time>2020-08-02T10:28:00.000Z</time>
      </trkpt>
      <trkpt lat="44.35895" lon="0.65989">
        <ele>187.6</ele>
        <time>2020-08-02T10:27:46.000Z</time>
      </trkpt>
      <trkpt lat="44.35864" lon="0.66">
        <ele>183.4</ele>
        <time>2020-08-02T10:27:33.000Z</time>
      </trkpt>
      <trkpt lat="44.35856" lon="0.66005">
        <ele>181.9</ele>
      </trkpt>
      <trkpt lat="44.35776" lon="0.66098">
        <ele>154</ele>
      </trkpt>
      <trkpt lat="44.35744" lon="0.66167">
        <ele>141.7</ele>
      </trkpt>
      <trkpt lat="44.35708" lon="0.66164">
        <ele>133.9</ele>
      </trkpt>
      <trkpt lat="44.35695" lon="0.66105">
        <ele>133.1</ele>
      </trkpt>
      <trkpt lat="44.35597" lon="0.66096">
        <ele>121.5</ele>
      </trkpt>
      <trkpt lat="44.35602" lon="0.66055">
        <ele>122.3</ele>
      </trkpt>
      <trkpt lat="44.35553" lon="0.66058">
        <ele>127.3</ele>
      </trkpt>
      <trkpt lat="44.35541" lon="0.66101">
        <ele>126.1</ele>
      </trkpt>
      <trkpt lat="44.35536" lon="0.6613">
        <ele>124.4</ele>
      </trkpt>
      <trkpt lat="44.35528" lon="0.66157">
        <ele>122.6</ele>
      </trkpt>
      <trkpt lat="44.35521" lon="0.66186">
        <ele>121.3</ele>
      </trkpt>
      <trkpt lat="44.35511" lon="0.66219">
        <ele>120.7</ele>
      </trkpt>
      <trkpt lat="44.35503" lon="0.66245">
        <ele>120.8</ele>
        <time>2020-08-02T09:37:55.000Z</time>
      </trkpt>
      <trkpt lat="44.355" lon="0.66258">
        <ele>120.7</ele>
        <time>2020-08-02T09:37:42.000Z</time>
      </trkpt>
      <trkpt lat="44.35497" lon="0.66264">
        <ele>120.6</ele>
        <time>2020-08-02T09:37:28.000Z</time>
      </trkpt>
      <trkpt lat="44.35496" lon="0.66265">
        <ele>120.7</ele>
        <time>2020-08-02T09:37:15.000Z</time>
      </trkpt>
      <trkpt lat="44.35497" lon="0.66266">
        <ele>120.6</ele>
        <time>2020-08-02T09:37:01.000Z</time>
      </trkpt>
      <trkpt lat="44.35497" lon="0.66267">
        <ele>120.6</ele>
        <time>2020-08-02T09:36:48.000Z</time>
      </trkpt>
      <trkpt lat="44.35493" lon="0.66275">
        <ele>120.6</ele>
        <time>2020-08-02T09:36:34.000Z</time>
      </trkpt>
      <trkpt lat="44.3549" lon="0.66286">
        <ele>120.3</ele>
        <time>2020-08-02T09:36:21.000Z</time>
      </trkpt>
      <trkpt lat="44.35483" lon="0.66303">
        <ele>120</ele>
        <time>2020-08-02T09:36:07.000Z</time>
      </trkpt>
      <trkpt lat="44.35474" lon="0.66321">
        <ele>119.8</ele>
        <time>2020-08-02T09:35:54.000Z</time>
      </trkpt>
      <trkpt lat="44.35465" lon="0.66343">
        <ele>119.6</ele>
        <time>2020-08-02T09:35:40.000Z</time>
      </trkpt>
      <trkpt lat="44.35458" lon="0.66364">
        <ele>119.3</ele>
        <time>2020-08-02T09:35:27.000Z</time>
      </trkpt>
      <trkpt lat="44.3545" lon="0.66383">
        <ele>118.2</ele>
        <time>2020-08-02T09:35:13.000Z</time>
      </trkpt>
      <trkpt lat="44.35443" lon="0.66403">
        <ele>117.1</ele>
        <time>2020-08-02T09:35:00.000Z</time>
      </trkpt>
      <trkpt lat="44.3543" lon="0.66419">
        <ele>116.9</ele>
        <time>2020-08-02T09:34:46.000Z</time>
      </trkpt>
      <trkpt lat="44.35417" lon="0.66428">
        <ele>117.2</ele>
        <time>2020-08-02T09:34:33.000Z</time>
      </trkpt>
      <trkpt lat="44.35405" lon="0.66442">
        <ele>117.4</ele>
        <time>2020-08-02T09:34:19.000Z</time>
      </trkpt>
      <trkpt lat="44.35398" lon="0.66451">
        <ele>117.4</ele>
        <time>2020-08-02T09:34:06.000Z</time>
      </trkpt>
      <trkpt lat="44.35395" lon="0.66455">
        <ele>117.2</ele>
        <time>2020-08-02T09:33:53.000Z</time>
      </trkpt>
      <trkpt lat="44.35391" lon="0.66461">
        <ele>116.9</ele>
        <time>2020-08-02T09:33:39.000Z</time>
      </trkpt>
      <trkpt lat="44.35382" lon="0.66474">
        <ele>116.4</ele>
        <time>2020-08-02T09:33:26.000Z</time>
      </trkpt>
      <trkpt lat="44.35372" lon="0.66484">
        <ele>116.3</ele>
        <time>2020-08-02T09:33:12.000Z</time>
      </trkpt>
      <trkpt lat="44.35363" lon="0.66497">
        <ele>116.1</ele>
        <time>2020-08-02T09:32:59.000Z</time>
      </trkpt>
      <trkpt lat="44.35352" lon="0.66502">
        <ele>115.8</ele>
        <time>2020-08-02T09:32:45.000Z</time>
      </trkpt>
      <trkpt lat="44.3535" lon="0.66503">
        <ele>115.7</ele>
        <time>2020-08-02T09:32:32.000Z</time>
      </trkpt>
      <trkpt lat="44.35349" lon="0.66505">
        <ele>115.6</ele>
        <time>2020-08-02T09:32:18.000Z</time>
      </trkpt>
      <trkpt lat="44.35348" lon="0.66504">
        <ele>115.7</ele>
        <time>2020-08-02T09:32:05.000Z</time>
      </trkpt>
      <trkpt lat="44.35346" lon="0.66507">
        <ele>115.4</ele>
        <time>2020-08-02T09:31:51.000Z</time>
      </trkpt>
      <trkpt lat="44.3534" lon="0.66506">
        <ele>115.5</ele>
        <time>2020-08-02T09:31:38.000Z</time>
      </trkpt>
      <trkpt lat="44.35327" lon="0.66502">
        <ele>115.7</ele>
        <time>2020-08-02T09:31:24.000Z</time>
      </trkpt>
      <trkpt lat="44.35315" lon="0.6649">
        <ele>116.1</ele>
        <time>2020-08-02T09:31:11.000Z</time>
      </trkpt>
      <trkpt lat="44.35305" lon="0.66475">
        <ele>116.7</ele>
        <time>2020-08-02T09:30:57.000Z</time>
      </trkpt>
      <trkpt lat="44.35294" lon="0.66463">
        <ele>116.5</ele>
        <time>2020-08-02T09:30:44.000Z</time>
      </trkpt>
      <trkpt lat="44.35281" lon="0.6645">
        <ele>116</ele>
        <time>2020-08-02T09:30:30.000Z</time>
      </trkpt>
      <trkpt lat="44.35267" lon="0.6644">
        <ele>115.7</ele>
        <time>2020-08-02T09:30:17.000Z</time>
      </trkpt>
      <trkpt lat="44.35252" lon="0.6643">
        <ele>115.1</ele>
        <time>2020-08-02T09:30:03.000Z</time>
      </trkpt>
      <trkpt lat="44.3524" lon="0.66424">
        <ele>114.9</ele>
        <time>2020-08-02T09:29:50.000Z</time>
      </trkpt>
      <trkpt lat="44.35225" lon="0.66417">
        <ele>115</ele>
        <time>2020-08-02T09:29:36.000Z</time>
      </trkpt>
      <trkpt lat="44.35212" lon="0.6641">
        <ele>115.8</ele>
        <time>2020-08-02T09:29:23.000Z</time>
      </trkpt>
      <trkpt lat="44.35196" lon="0.66408">
        <ele>116.6</ele>
        <time>2020-08-02T09:29:10.000Z</time>
      </trkpt>
      <trkpt lat="44.3518" lon="0.66402">
        <ele>117</ele>
        <time>2020-08-02T09:28:56.000Z</time>
      </trkpt>
      <trkpt lat="44.35166" lon="0.66398">
        <ele>117.3</ele>
        <time>2020-08-02T09:28:43.000Z</time>
      </trkpt>
      <trkpt lat="44.35149" lon="0.66387">
        <ele>118.2</ele>
        <time>2020-08-02T09:28:29.000Z</time>
      </trkpt>
      <trkpt lat="44.35137" lon="0.6638">
        <ele>118.5</ele>
        <time>2020-08-02T09:28:16.000Z</time>
      </trkpt>
      <trkpt lat="44.35123" lon="0.66373">
        <ele>118.2</ele>
        <time>2020-08-02T09:28:02.000Z</time>
      </trkpt>
      <trkpt lat="44.35109" lon="0.66365">
        <ele>117.8</ele>
        <time>2020-08-02T09:27:49.000Z</time>
      </trkpt>
      <trkpt lat="44.35095" lon="0.66357">
        <ele>117.9</ele>
        <time>2020-08-02T09:27:35.000Z</time>
      </trkpt>
      <trkpt lat="44.35081" lon="0.66355">
        <ele>117.4</ele>
        <time>2020-08-02T09:27:22.000Z</time>
      </trkpt>
      <trkpt lat="44.35067" lon="0.66346">
        <ele>117.2</ele>
        <time>2020-08-02T09:27:08.000Z</time>
      </trkpt>
      <trkpt lat="44.35055" lon="0.66336">
        <ele>116.9</ele>
        <time>2020-08-02T09:26:55.000Z</time>
      </trkpt>
      <trkpt lat="44.35043" lon="0.66321">
        <ele>117</ele>
        <time>2020-08-02T09:26:41.000Z</time>
      </trkpt>
      <trkpt lat="44.35033" lon="0.66305">
        <ele>117.2</ele>
        <time>2020-08-02T09:26:28.000Z</time>
      </trkpt>
      <trkpt lat="44.35023" lon="0.66289">
        <ele>118.1</ele>
        <time>2020-08-02T09:26:14.000Z</time>
      </trkpt>
      <trkpt lat="44.35013" lon="0.66273">
        <ele>118.5</ele>
        <time>2020-08-02T09:26:01.000Z</time>
      </trkpt>
      <trkpt lat="44.35003" lon="0.66256">
        <ele>118.2</ele>
        <time>2020-08-02T09:25:47.000Z</time>
      </trkpt>
      <trkpt lat="44.34994" lon="0.66242">
        <ele>118.1</ele>
        <time>2020-08-02T09:25:34.000Z</time>
      </trkpt>
      <trkpt lat="44.34986" lon="0.66225">
        <ele>118.4</ele>
        <time>2020-08-02T09:25:20.000Z</time>
      </trkpt>
      <trkpt lat="44.34977" lon="0.66209">
        <ele>118.6</ele>
        <time>2020-08-02T09:25:07.000Z</time>
      </trkpt>
      <trkpt lat="44.34964" lon="0.66193">
        <ele>119</ele>
        <time>2020-08-02T09:24:53.000Z</time>
      </trkpt>
      <trkpt lat="44.34953" lon="0.66183">
        <ele>119.1</ele>
        <time>2020-08-02T09:24:40.000Z</time>
      </trkpt>
      <trkpt lat="44.34943" lon="0.66173">
        <ele>119</ele>
        <time>2020-08-02T09:24:27.000Z</time>
      </trkpt>
      <trkpt lat="44.3493" lon="0.66171">
        <ele>118.9</ele>
        <time>2020-08-02T09:24:13.000Z</time>
      </trkpt>
      <trkpt lat="44.34923" lon="0.66185">
        <ele>118.5</ele>
        <time>2020-08-02T09:24:00.000Z</time>
      </trkpt>
      <trkpt lat="44.34914" lon="0.66202">
        <ele>118.1</ele>
        <time>2020-08-02T09:23:46.000Z</time>
      </trkpt>
      <trkpt lat="44.349" lon="0.66207">
        <ele>118.6</ele>
        <time>2020-08-02T09:23:33.000Z</time>
      </trkpt>
      <trkpt lat="44.34884" lon="0.662">
        <ele>119.1</ele>
        <time>2020-08-02T09:23:19.000Z</time>
      </trkpt>
      <trkpt lat="44.34872" lon="0.66194">
        <ele>119</ele>
        <time>2020-08-02T09:23:06.000Z</time>
      </trkpt>
      <trkpt lat="44.34855" lon="0.66189">
        <ele>119.5</ele>
        <time>2020-08-02T09:22:52.000Z</time>
      </trkpt>
      <trkpt lat="44.3484" lon="0.66183">
        <ele>120.3</ele>
        <time>2020-08-02T09:22:39.000Z</time>
      </trkpt>
      <trkpt lat="44.34829" lon="0.66173">
        <ele>120.4</ele>
        <time>2020-08-02T09:22:25.000Z</time>
      </trkpt>
      <trkpt lat="44.34814" lon="0.66169">
        <ele>120.8</ele>
        <time>2020-08-02T09:22:12.000Z</time>
      </trkpt>
      <trkpt lat="44.34796" lon="0.66163">
        <ele>121.7</ele>
        <time>2020-08-02T09:21:58.000Z</time>
      </trkpt>
      <trkpt lat="44.34782" lon="0.66156">
        <ele>122.4</ele>
        <time>2020-08-02T09:21:45.000Z</time>
      </trkpt>
      <trkpt lat="44.3477" lon="0.66151">
        <ele>122.7</ele>
        <time>2020-08-02T09:21:31.000Z</time>
      </trkpt>
      <trkpt lat="44.34757" lon="0.66141">
        <ele>122.8</ele>
        <time>2020-08-02T09:21:18.000Z</time>
      </trkpt>
      <trkpt lat="44.34746" lon="0.66132">
        <ele>123.1</ele>
        <time>2020-08-02T09:21:04.000Z</time>
      </trkpt>
      <trkpt lat="44.34733" lon="0.66126">
        <ele>123.6</ele>
        <time>2020-08-02T09:20:51.000Z</time>
      </trkpt>
      <trkpt lat="44.34714" lon="0.66122">
        <ele>124.1</ele>
        <time>2020-08-02T09:20:37.000Z</time>
      </trkpt>
      <trkpt lat="44.34702" lon="0.6612">
        <ele>124.2</ele>
        <time>2020-08-02T09:20:24.000Z</time>
      </trkpt>
      <trkpt lat="44.34689" lon="0.66119">
        <ele>124.5</ele>
        <time>2020-08-02T09:20:10.000Z</time>
      </trkpt>
      <trkpt lat="44.3468" lon="0.6612">
        <ele>124.8</ele>
        <time>2020-08-02T09:19:57.000Z</time>
      </trkpt>
      <trkpt lat="44.34679" lon="0.66118">
        <ele>124.8</ele>
        <time>2020-08-02T09:19:44.000Z</time>
      </trkpt>
      <trkpt lat="44.34679" lon="0.66116">
        <ele>124.7</ele>
        <time>2020-08-02T09:19:30.000Z</time>
      </trkpt>
      <trkpt lat="44.3468" lon="0.66111">
        <ele>124.5</ele>
        <time>2020-08-02T09:19:17.000Z</time>
      </trkpt>
      <trkpt lat="44.34686" lon="0.6609">
        <ele>125.6</ele>
        <time>2020-08-02T09:19:03.000Z</time>
      </trkpt>
      <trkpt lat="44.3469" lon="0.66073">
        <ele>126.6</ele>
        <time>2020-08-02T09:18:50.000Z</time>
      </trkpt>
      <trkpt lat="44.34686" lon="0.66053">
        <ele>127.6</ele>
        <time>2020-08-02T09:18:36.000Z</time>
      </trkpt>
      <trkpt lat="44.34675" lon="0.6604">
        <ele>127.7</ele>
        <time>2020-08-02T09:18:23.000Z</time>
      </trkpt>
      <trkpt lat="44.34666" lon="0.66024">
        <ele>128.4</ele>
        <time>2020-08-02T09:18:09.000Z</time>
      </trkpt>
      <trkpt lat="44.34657" lon="0.66007">
        <ele>130.5</ele>
        <time>2020-08-02T09:17:56.000Z</time>
      </trkpt>
      <trkpt lat="44.34647" lon="0.65989">
        <ele>133</ele>
        <time>2020-08-02T09:17:42.000Z</time>
      </trkpt>
      <trkpt lat="44.34638" lon="0.65976">
        <ele>134.9</ele>
        <time>2020-08-02T09:17:29.000Z</time>
      </trkpt>
      <trkpt lat="44.34628" lon="0.65963">
        <ele>138</ele>
        <time>2020-08-02T09:17:15.000Z</time>
      </trkpt>
      <trkpt lat="44.34623" lon="0.65957">
        <ele>139.2</ele>
        <time>2020-08-02T09:17:02.000Z</time>
      </trkpt>
      <trkpt lat="44.34616" lon="0.65948">
        <ele>140.9</ele>
        <time>2020-08-02T09:16:48.000Z</time>
      </trkpt>
      <trkpt lat="44.34607" lon="0.65938">
        <ele>143.8</ele>
        <time>2020-08-02T09:16:35.000Z</time>
      </trkpt>
      <trkpt lat="44.34597" lon="0.65927">
        <ele>147.4</ele>
        <time>2020-08-02T09:16:21.000Z</time>
      </trkpt>
      <trkpt lat="44.34588" lon="0.65918">
        <ele>150.6</ele>
        <time>2020-08-02T09:16:08.000Z</time>
      </trkpt>
      <trkpt lat="44.34578" lon="0.65907">
        <ele>154.4</ele>
        <time>2020-08-02T09:15:54.000Z</time>
      </trkpt>
      <trkpt lat="44.34568" lon="0.65897">
        <ele>157.8</ele>
        <time>2020-08-02T09:15:41.000Z</time>
      </trkpt>
      <trkpt lat="44.34557" lon="0.65891">
        <ele>161.3</ele>
        <time>2020-08-02T09:15:27.000Z</time>
      </trkpt>
      <trkpt lat="44.34546" lon="0.65893">
        <ele>163.9</ele>
        <time>2020-08-02T09:15:14.000Z</time>
      </trkpt>
      <trkpt lat="44.34534" lon="0.659">
        <ele>165.4</ele>
        <time>2020-08-02T09:15:01.000Z</time>
      </trkpt>
      <trkpt lat="44.34518" lon="0.65908">
        <ele>165.7</ele>
        <time>2020-08-02T09:14:47.000Z</time>
      </trkpt>
      <trkpt lat="44.34505" lon="0.65906">
        <ele>166.2</ele>
        <time>2020-08-02T09:14:34.000Z</time>
      </trkpt>
      <trkpt lat="44.3449" lon="0.65897">
        <ele>167.1</ele>
        <time>2020-08-02T09:14:20.000Z</time>
      </trkpt>
      <trkpt lat="44.34477" lon="0.65888">
        <ele>167.8</ele>
        <time>2020-08-02T09:14:07.000Z</time>
      </trkpt>
      <trkpt lat="44.34464" lon="0.65881">
        <ele>167.9</ele>
        <time>2020-08-02T09:13:53.000Z</time>
      </trkpt>
      <trkpt lat="44.34453" lon="0.65874">
        <ele>167.9</ele>
        <time>2020-08-02T09:13:40.000Z</time>
      </trkpt>
      <trkpt lat="44.3444" lon="0.6587">
        <ele>166.8</ele>
        <time>2020-08-02T09:13:26.000Z</time>
      </trkpt>
      <trkpt lat="44.34425" lon="0.65868">
        <ele>165.7</ele>
        <time>2020-08-02T09:13:13.000Z</time>
      </trkpt>
      <trkpt lat="44.34411" lon="0.65863">
        <ele>166.2</ele>
        <time>2020-08-02T09:12:59.000Z</time>
      </trkpt>
      <trkpt lat="44.34401" lon="0.65855">
        <ele>168.9</ele>
        <time>2020-08-02T09:12:46.000Z</time>
      </trkpt>
      <trkpt lat="44.34388" lon="0.65852">
        <ele>170.1</ele>
        <time>2020-08-02T09:12:32.000Z</time>
      </trkpt>
      <trkpt lat="44.34375" lon="0.65849">
        <ele>171.3</ele>
        <time>2020-08-02T09:12:19.000Z</time>
      </trkpt>
      <trkpt lat="44.3436" lon="0.65849">
        <ele>171.1</ele>
        <time>2020-08-02T09:12:05.000Z</time>
      </trkpt>
      <trkpt lat="44.34349" lon="0.65845">
        <ele>171.7</ele>
        <time>2020-08-02T09:11:52.000Z</time>
      </trkpt>
      <trkpt lat="44.34337" lon="0.65845">
        <ele>170.5</ele>
        <time>2020-08-02T09:11:38.000Z</time>
      </trkpt>
      <trkpt lat="44.34326" lon="0.65842">
        <ele>169.2</ele>
        <time>2020-08-02T09:11:25.000Z</time>
      </trkpt>
      <trkpt lat="44.34315" lon="0.65833">
        <ele>168</ele>
        <time>2020-08-02T09:11:11.000Z</time>
      </trkpt>
      <trkpt lat="44.34305" lon="0.65818">
        <ele>168.7</ele>
        <time>2020-08-02T09:10:58.000Z</time>
      </trkpt>
      <trkpt lat="44.34305" lon="0.65801">
        <ele>173.6</ele>
        <time>2020-08-02T09:10:44.000Z</time>
      </trkpt>
      <trkpt lat="44.343" lon="0.65787">
        <ele>177</ele>
        <time>2020-08-02T09:10:31.000Z</time>
      </trkpt>
      <trkpt lat="44.34291" lon="0.6578">
        <ele>176.6</ele>
        <time>2020-08-02T09:10:18.000Z</time>
      </trkpt>
      <trkpt lat="44.34281" lon="0.65777">
        <ele>174.6</ele>
        <time>2020-08-02T09:10:04.000Z</time>
      </trkpt>
      <trkpt lat="44.34274" lon="0.65774">
        <ele>174.5</ele>
        <time>2020-08-02T09:09:51.000Z</time>
      </trkpt>
      <trkpt lat="44.34262" lon="0.65774">
        <ele>173.3</ele>
        <time>2020-08-02T09:09:37.000Z</time>
      </trkpt>
      <trkpt lat="44.34256" lon="0.65779">
        <ele>170.8</ele>
        <time>2020-08-02T09:09:24.000Z</time>
      </trkpt>
      <trkpt lat="44.34251" lon="0.65778">
        <ele>170.9</ele>
        <time>2020-08-02T09:09:10.000Z</time>
      </trkpt>
      <trkpt lat="44.3425" lon="0.6578">
        <ele>170.4</ele>
        <time>2020-08-02T09:08:57.000Z</time>
      </trkpt>
      <trkpt lat="44.34248" lon="0.65779">
        <ele>171.1</ele>
        <time>2020-08-02T09:08:43.000Z</time>
      </trkpt>
      <trkpt lat="44.34246" lon="0.6578">
        <ele>171</ele>
        <time>2020-08-02T09:08:30.000Z</time>
      </trkpt>
      <trkpt lat="44.34238" lon="0.65778">
        <ele>172.8</ele>
        <time>2020-08-02T09:08:16.000Z</time>
      </trkpt>
      <trkpt lat="44.34231" lon="0.65778">
        <ele>173.7</ele>
        <time>2020-08-02T09:08:03.000Z</time>
      </trkpt>
      <trkpt lat="44.34219" lon="0.65789">
        <ele>172.1</ele>
        <time>2020-08-02T09:07:49.000Z</time>
      </trkpt>
      <trkpt lat="44.34208" lon="0.65807">
        <ele>169.2</ele>
        <time>2020-08-02T09:07:36.000Z</time>
      </trkpt>
      <trkpt lat="44.34194" lon="0.65818">
        <ele>169.6</ele>
        <time>2020-08-02T09:07:22.000Z</time>
      </trkpt>
      <trkpt lat="44.34179" lon="0.65817">
        <ele>172.9</ele>
        <time>2020-08-02T09:07:09.000Z</time>
      </trkpt>
      <trkpt lat="44.3417" lon="0.65811">
        <ele>176.8</ele>
        <time>2020-08-02T09:06:55.000Z</time>
      </trkpt>
      <trkpt lat="44.34161" lon="0.65805">
        <ele>180.2</ele>
        <time>2020-08-02T09:06:42.000Z</time>
      </trkpt>
      <trkpt lat="44.34161" lon="0.65793">
        <ele>183.1</ele>
        <time>2020-08-02T09:06:28.000Z</time>
      </trkpt>
      <trkpt lat="44.34176" lon="0.65789">
        <ele>181.5</ele>
        <time>2020-08-02T09:06:15.000Z</time>
      </trkpt>
      <trkpt lat="44.34187" lon="0.65778">
        <ele>182.3</ele>
        <time>2020-08-02T09:06:01.000Z</time>
      </trkpt>
      <trkpt lat="44.34192" lon="0.65766">
        <ele>184.5</ele>
        <time>2020-08-02T09:05:48.000Z</time>
      </trkpt>
      <trkpt lat="44.34204" lon="0.65754">
        <ele>185.5</ele>
        <time>2020-08-02T09:05:35.000Z</time>
      </trkpt>
      <trkpt lat="44.3421" lon="0.65736">
        <ele>188.4</ele>
        <time>2020-08-02T09:05:21.000Z</time>
      </trkpt>
      <trkpt lat="44.34203" lon="0.6572">
        <ele>191.6</ele>
        <time>2020-08-02T09:05:08.000Z</time>
      </trkpt>
      <trkpt lat="44.34195" lon="0.65703">
        <ele>193.3</ele>
        <time>2020-08-02T09:04:54.000Z</time>
      </trkpt>
      <trkpt lat="44.34189" lon="0.65688">
        <ele>194.6</ele>
        <time>2020-08-02T09:04:41.000Z</time>
      </trkpt>
      <trkpt lat="44.34181" lon="0.65671">
        <ele>195.4</ele>
        <time>2020-08-02T09:04:27.000Z</time>
      </trkpt>
      <trkpt lat="44.34172" lon="0.65662">
        <ele>195.8</ele>
        <time>2020-08-02T09:04:14.000Z</time>
      </trkpt>
      <trkpt lat="44.3416" lon="0.65668">
        <ele>196.2</ele>
        <time>2020-08-02T09:04:00.000Z</time>
      </trkpt>
    </trkseg>
  </trk>
</gpx>